createdAt,value
2019-05-17T00:02:12.515Z,19.66
2019-05-17T00:04:46.943Z,19.09
2019-05-17T00:07:19.700Z,18.55
2019-05-17T00:09:53.580Z,18.06
2019-05-17T00:12:27.102Z,17.61
2019-05-17T00:14:59.930Z,17.16
2019-05-17T00:17:32.740Z,18.02
2019-05-17T00:20:08.381Z,19.69
2019-05-17T00:22:41.060Z,21.01
2019-05-17T00:25:16.509Z,21.01
2019-05-17T00:27:48.687Z,20.27
2019-05-17T00:30:21.615Z,19.61
2019-05-17T00:32:56.797Z,19.07
2019-05-17T00:35:28.905Z,18.51
2019-05-17T00:38:01.830Z,18.07
2019-05-17T00:40:36.705Z,17.62
2019-05-17T00:43:09.245Z,17.19
2019-05-17T00:45:42.140Z,18.00
2019-05-17T00:48:16.949Z,19.69
2019-05-17T00:50:53.305Z,19.99
2019-05-17T00:53:23.645Z,19.33
2019-05-17T00:55:57.335Z,18.71
2019-05-17T00:58:31.020Z,18.21
2019-05-17T01:01:03.799Z,17.75
2019-05-17T01:03:36.425Z,17.35
2019-05-17T01:06:09.611Z,16.93
2019-05-17T01:08:42.256Z,17.78
2019-05-17T01:11:16.516Z,19.44
2019-05-17T01:13:49.080Z,20.77
2019-05-17T01:16:21.865Z,20.75
2019-05-17T01:18:54.520Z,19.98
2019-05-17T01:21:27.287Z,19.33
2019-05-17T01:23:59.950Z,18.70
2019-05-17T01:26:32.686Z,18.20
2019-05-17T01:29:06.746Z,17.72
2019-05-17T01:31:39.441Z,17.24
2019-05-17T01:34:12.062Z,16.83
2019-05-17T01:36:46.484Z,17.69
2019-05-17T01:39:21.485Z,19.23
2019-05-17T01:41:53.640Z,20.54
2019-05-17T01:44:27.220Z,20.54
2019-05-17T01:46:59.896Z,19.82
2019-05-17T01:49:32.527Z,19.22
2019-05-17T01:52:07.313Z,18.65
2019-05-17T01:54:39.635Z,18.17
2019-05-17T01:57:12.475Z,17.74
2019-05-17T01:59:46.713Z,17.30
2019-05-17T02:02:27.180Z,16.86
2019-05-17T02:04:59.972Z,17.75
2019-05-17T02:07:32.630Z,19.37
2019-05-17T02:10:07.612Z,20.67
2019-05-17T02:12:40.470Z,20.67
2019-05-17T02:15:16.284Z,19.93
2019-05-17T02:17:48.430Z,19.25
2019-05-17T02:20:22.275Z,18.64
2019-05-17T02:22:56.466Z,18.14
2019-05-17T02:25:29.308Z,17.65
2019-05-17T02:28:02.460Z,17.23
2019-05-17T02:30:35.366Z,16.80
2019-05-17T02:33:08.321Z,17.49
2019-05-17T02:35:42.947Z,19.09
2019-05-17T02:38:15.866Z,20.48
2019-05-17T02:40:48.491Z,20.57
2019-05-17T02:43:23.581Z,19.86
2019-05-17T02:45:56.867Z,19.20
2019-05-17T02:48:29.572Z,18.64
2019-05-17T02:51:03.488Z,18.10
2019-05-17T02:53:36.647Z,17.65
2019-05-17T02:56:13.475Z,17.19
2019-05-17T02:58:44.460Z,16.72
2019-05-17T03:01:17.307Z,17.44
2019-05-17T03:03:52.611Z,18.96
2019-05-17T03:06:24.243Z,20.37
2019-05-17T03:08:57.287Z,20.46
2019-05-17T03:11:33.019Z,19.72
2019-05-17T03:14:04.670Z,19.07
2019-05-17T03:16:37.673Z,18.47
2019-05-17T03:19:13.121Z,17.96
2019-05-17T03:21:44.531Z,17.49
2019-05-17T03:24:17.381Z,17.07
2019-05-17T03:26:52.623Z,17.84
2019-05-17T03:29:24.737Z,19.47
2019-05-17T03:32:00.589Z,20.78
2019-05-17T03:34:36.816Z,20.79
2019-05-17T03:37:07.495Z,20.03
2019-05-17T03:39:42.746Z,19.38
2019-05-17T03:42:15.897Z,18.81
2019-05-17T03:44:48.621Z,18.25
2019-05-17T03:47:22.669Z,17.84
2019-05-17T03:49:55.806Z,17.41
2019-05-17T03:52:28.286Z,18.19
2019-05-17T03:55:03.899Z,19.76
2019-05-17T03:57:36.378Z,21.01
2019-05-17T04:00:13.330Z,20.98
2019-05-17T04:02:45.505Z,20.29
2019-05-17T04:05:18.382Z,19.65
2019-05-17T04:07:53.735Z,19.14
2019-05-17T04:10:26.460Z,18.64
2019-05-17T04:12:59.201Z,18.16
2019-05-17T04:15:32.834Z,17.78
2019-05-17T04:18:06.013Z,18.50
2019-05-17T04:20:39.063Z,20.01
2019-05-17T04:23:12.754Z,21.17
2019-05-17T04:25:46.980Z,21.15
2019-05-17T04:28:22.770Z,20.43
2019-05-17T04:30:54.247Z,19.78
2019-05-17T04:33:26.756Z,19.27
2019-05-17T04:36:02.299Z,18.81
2019-05-17T04:38:33.598Z,18.33
2019-05-17T04:41:06.637Z,17.95
2019-05-17T04:43:42.255Z,18.74
2019-05-17T04:46:13.572Z,20.34
2019-05-17T04:48:46.211Z,21.52
2019-05-17T04:51:18.897Z,21.46
2019-05-17T04:53:53.024Z,20.81
2019-05-17T04:56:25.862Z,20.24
2019-05-17T04:58:58.671Z,19.78
2019-05-17T05:01:32.978Z,19.38
2019-05-17T05:04:05.701Z,19.07
2019-05-17T05:06:38.545Z,18.74
2019-05-17T05:09:12.733Z,18.44
2019-05-17T05:11:57.103Z,18.09
2019-05-17T05:14:19.846Z,17.75
2019-05-17T05:16:52.894Z,18.62
2019-05-17T05:19:25.685Z,20.39
2019-05-17T05:21:58.410Z,21.87
2019-05-17T05:24:31.590Z,22.02
2019-05-17T05:27:04.241Z,21.60
2019-05-17T05:29:36.956Z,21.42
2019-05-17T05:32:11.749Z,21.32
2019-05-17T05:34:46.435Z,21.20
2019-05-17T05:37:20.274Z,21.17
2019-05-17T05:39:54.595Z,21.19
2019-05-17T05:42:27.500Z,21.22
2019-05-17T05:45:00.218Z,21.29
2019-05-17T05:47:33.125Z,21.39
2019-05-17T05:50:08.710Z,21.43
2019-05-17T05:52:42.398Z,21.49
2019-05-17T05:55:15.420Z,21.49
2019-05-17T05:57:48.146Z,21.46
2019-05-17T06:00:22.119Z,21.39
2019-05-17T06:02:55.206Z,21.36
2019-05-17T06:05:28.316Z,21.36
2019-05-17T06:08:02.928Z,21.26
2019-05-17T06:10:39.448Z,21.15
2019-05-17T06:13:12.991Z,21.01
2019-05-17T06:15:46.309Z,20.81
2019-05-17T06:18:19.400Z,20.58
2019-05-17T06:20:52.492Z,20.37
2019-05-17T06:23:25.360Z,20.17
2019-05-17T06:25:57.889Z,20.01
2019-05-17T06:28:31.849Z,19.86
2019-05-17T06:31:04.706Z,19.78
2019-05-17T06:33:37.110Z,19.74
2019-05-17T06:36:09.795Z,19.65
2019-05-17T06:38:42.580Z,19.60
2019-05-17T06:41:15.450Z,19.50
2019-05-17T06:43:48.222Z,19.37
2019-05-17T06:46:22.005Z,19.29
2019-05-17T06:48:54.731Z,19.19
2019-05-17T06:51:27.285Z,19.11
2019-05-17T06:54:01.840Z,19.03
2019-05-17T06:56:34.879Z,18.96
2019-05-17T06:59:08.110Z,18.83
2019-05-17T07:01:41.481Z,18.70
2019-05-17T07:04:15.000Z,18.58
2019-05-17T07:06:49.575Z,19.78
2019-05-17T07:09:22.241Z,21.50
2019-05-17T07:11:54.930Z,21.80
2019-05-17T07:14:29.463Z,21.42
2019-05-17T07:17:02.301Z,21.02
2019-05-17T07:19:35.265Z,20.71
2019-05-17T07:22:09.508Z,20.44
2019-05-17T07:24:42.560Z,20.19
2019-05-17T07:27:15.305Z,19.96
2019-05-17T07:29:49.725Z,19.75
2019-05-17T07:32:22.745Z,19.53
2019-05-17T07:34:55.435Z,19.31
2019-05-17T07:37:30.314Z,19.07
2019-05-17T07:40:05.270Z,18.86
2019-05-17T07:42:39.578Z,18.67
2019-05-17T07:45:13.438Z,18.57
2019-05-17T07:47:46.730Z,18.46
2019-05-17T07:50:20.461Z,18.33
2019-05-17T07:52:52.800Z,18.23
2019-05-17T07:55:25.282Z,18.17
2019-05-17T07:58:00.102Z,19.41
2019-05-17T08:00:32.060Z,21.33
2019-05-17T08:03:04.562Z,21.80
2019-05-17T08:05:36.866Z,21.40
2019-05-17T08:08:09.854Z,21.05
2019-05-17T08:10:42.561Z,20.77
2019-05-17T08:13:25.667Z,20.54
2019-05-17T08:15:50.188Z,20.29
2019-05-17T08:18:22.743Z,20.05
2019-05-17T08:20:55.220Z,19.81
2019-05-17T08:23:30.206Z,19.62
2019-05-17T08:26:01.980Z,19.43
2019-05-17T08:28:34.520Z,19.26
2019-05-17T08:31:09.742Z,19.13
2019-05-17T08:33:40.941Z,19.05
2019-05-17T08:36:13.402Z,18.96
2019-05-17T08:38:45.720Z,18.89
2019-05-17T08:41:20.630Z,18.83
2019-05-17T08:43:52.409Z,18.76
2019-05-17T08:46:25.080Z,18.68
2019-05-17T08:49:00.280Z,18.61
2019-05-17T08:51:32.481Z,18.51
2019-05-17T08:54:05.062Z,18.44
2019-05-17T08:56:40.011Z,18.28
2019-05-17T08:59:11.461Z,18.19
2019-05-17T09:01:43.800Z,18.06
2019-05-17T09:04:16.281Z,17.90
2019-05-17T09:06:50.448Z,17.76
2019-05-17T09:09:22.522Z,19.07
2019-05-17T09:11:55.060Z,20.98
2019-05-17T09:14:29.431Z,21.39
2019-05-17T09:17:01.944Z,21.03
2019-05-17T09:19:34.420Z,20.75
2019-05-17T09:22:10.334Z,20.58
2019-05-17T09:24:41.961Z,20.48
2019-05-17T09:27:14.480Z,20.41
2019-05-17T09:29:46.941Z,20.31
2019-05-17T09:32:20.218Z,20.20
2019-05-17T09:34:52.700Z,20.05
2019-05-17T09:37:25.062Z,19.96
2019-05-17T09:39:59.673Z,19.93
2019-05-17T09:42:32.003Z,19.91
2019-05-17T09:45:06.240Z,19.88
2019-05-17T09:47:39.713Z,19.85
2019-05-17T09:50:12.900Z,19.89
2019-05-17T09:52:45.181Z,19.92
2019-05-17T09:55:19.624Z,19.93
2019-05-17T09:57:52.021Z,19.91
2019-05-17T10:00:25.882Z,19.98
2019-05-17T10:03:00.094Z,20.09
2019-05-17T10:05:32.661Z,20.17
2019-05-17T10:08:05.340Z,20.20
2019-05-17T10:10:39.986Z,20.26
2019-05-17T10:13:13.061Z,20.30
2019-05-17T10:15:45.500Z,20.31
2019-05-17T10:18:19.997Z,20.30
2019-05-17T10:20:52.042Z,20.31
2019-05-17T10:23:24.500Z,20.31
2019-05-17T10:25:59.384Z,20.27
2019-05-17T10:28:31.101Z,20.20
2019-05-17T10:31:03.687Z,20.15
2019-05-17T10:33:36.260Z,20.06
2019-05-17T10:36:08.820Z,20.05
2019-05-17T10:38:41.501Z,20.03
2019-05-17T10:41:14.120Z,20.06
2019-05-17T10:43:46.660Z,20.12
2019-05-17T10:46:20.542Z,20.22
2019-05-17T10:48:53.185Z,20.33
2019-05-17T10:51:25.840Z,20.46
2019-05-17T10:53:59.962Z,20.60
2019-05-17T10:56:32.681Z,20.72
2019-05-17T10:59:06.383Z,20.75
2019-05-17T11:01:38.840Z,20.75
2019-05-17T11:04:11.582Z,20.75
2019-05-17T11:06:43.960Z,20.74
2019-05-17T11:09:16.545Z,20.67
2019-05-17T11:11:48.920Z,20.65
2019-05-17T11:14:21.401Z,20.61
2019-05-17T11:16:53.980Z,20.61
2019-05-17T11:19:26.520Z,20.57
2019-05-17T11:21:59.021Z,20.55
2019-05-17T11:24:31.381Z,20.55
2019-05-17T11:27:03.941Z,20.60
2019-05-17T11:29:36.620Z,20.60
2019-05-17T11:32:09.126Z,20.61
2019-05-17T11:34:42.702Z,20.64
2019-05-17T11:37:15.000Z,20.65
2019-05-17T11:39:47.380Z,20.65
2019-05-17T11:42:19.790Z,20.67
2019-05-17T11:44:52.400Z,20.68
2019-05-17T11:47:24.900Z,20.71
2019-05-17T11:49:57.441Z,20.74
2019-05-17T11:52:30.230Z,20.84
2019-05-17T11:55:02.824Z,20.87
2019-05-17T11:57:35.502Z,20.91
2019-05-17T12:00:12.220Z,20.89
2019-05-17T12:02:44.641Z,20.92
2019-05-17T12:05:17.221Z,20.92
2019-05-17T12:07:49.782Z,20.88
2019-05-17T12:10:22.789Z,20.85
2019-05-17T12:12:55.361Z,20.81
2019-05-17T12:15:43.713Z,20.74
2019-05-17T12:18:02.201Z,20.68
2019-05-17T12:20:36.162Z,20.62
2019-05-17T12:23:08.960Z,20.50
2019-05-17T12:25:41.340Z,20.39
2019-05-17T12:28:14.101Z,20.30
2019-05-17T12:30:46.601Z,20.17
2019-05-17T12:33:19.100Z,20.08
2019-05-17T12:35:51.721Z,19.92
2019-05-17T12:38:24.200Z,19.84
2019-05-17T12:40:56.881Z,19.69
2019-05-17T12:43:29.720Z,19.57
2019-05-17T12:46:02.221Z,19.38
2019-05-17T12:48:34.802Z,19.26
2019-05-17T12:51:07.444Z,19.10
2019-05-17T12:53:39.921Z,20.31
2019-05-17T12:56:14.661Z,22.11
2019-05-17T12:58:47.060Z,22.40
2019-05-17T13:01:19.420Z,21.98
2019-05-17T13:03:52.102Z,21.60
2019-05-17T13:06:24.461Z,21.27
2019-05-17T13:08:56.961Z,20.98
2019-05-17T13:11:29.487Z,20.74
2019-05-17T13:14:02.223Z,20.55
2019-05-17T13:16:34.761Z,20.34
2019-05-17T13:19:07.161Z,20.17
2019-05-17T13:21:39.630Z,20.02
2019-05-17T13:24:12.221Z,19.92
2019-05-17T13:26:44.911Z,19.81
2019-05-17T13:29:17.860Z,19.71
2019-05-17T13:31:50.366Z,19.61
2019-05-17T13:34:23.262Z,19.50
2019-05-17T13:36:56.270Z,19.41
2019-05-17T13:39:29.018Z,19.34
2019-05-17T13:42:01.576Z,19.26
2019-05-17T13:44:34.230Z,19.22
2019-05-17T13:47:06.853Z,19.14
2019-05-17T13:49:39.678Z,20.50
2019-05-17T13:52:12.525Z,22.50
2019-05-17T13:54:45.154Z,22.91
2019-05-17T13:57:18.093Z,22.62
2019-05-17T13:59:51.015Z,22.43
2019-05-17T14:02:23.759Z,22.28
2019-05-17T14:04:56.646Z,22.12
2019-05-17T14:07:29.518Z,21.97
2019-05-17T14:10:02.602Z,21.81
2019-05-17T14:12:35.220Z,21.65
2019-05-17T14:15:12.186Z,21.53
2019-05-17T14:17:44.745Z,21.37
2019-05-17T14:20:17.646Z,21.20
2019-05-17T14:22:50.630Z,21.05
2019-05-17T14:25:23.395Z,20.92
2019-05-17T14:27:55.981Z,20.88
2019-05-17T14:30:28.839Z,20.82
2019-05-17T14:33:01.448Z,20.78
2019-05-17T14:35:34.416Z,20.79
2019-05-17T14:38:06.991Z,20.71
2019-05-17T14:41:05.110Z,20.67
2019-05-17T14:43:14.377Z,20.57
2019-05-17T14:45:47.183Z,20.51
2019-05-17T14:48:19.746Z,20.44
2019-05-17T14:50:53.595Z,20.37
2019-05-17T14:53:26.460Z,20.33
2019-05-17T14:55:59.786Z,20.23
2019-05-17T14:58:32.503Z,20.20
2019-05-17T15:01:06.632Z,20.13
2019-05-17T15:03:39.385Z,20.06
2019-05-17T15:06:12.621Z,19.96
2019-05-17T15:08:45.147Z,19.89
2019-05-17T15:11:17.881Z,19.78
2019-05-17T15:13:50.385Z,19.66
2019-05-17T15:16:23.139Z,19.62
2019-05-17T15:18:55.856Z,19.54
2019-05-17T15:21:28.656Z,19.46
2019-05-17T15:24:01.246Z,19.40
2019-05-17T15:26:35.804Z,19.36
2019-05-17T15:29:09.842Z,19.29
2019-05-17T15:31:42.456Z,19.23
2019-05-17T15:34:15.471Z,19.17
2019-05-17T15:36:48.215Z,19.13
2019-05-17T15:39:20.965Z,19.11
2019-05-17T15:41:53.801Z,19.10
2019-05-17T15:44:27.083Z,19.10
2019-05-17T15:47:00.071Z,19.07
2019-05-17T15:49:32.753Z,19.10
2019-05-17T15:52:05.905Z,19.10
2019-05-17T15:54:38.630Z,19.11
2019-05-17T15:57:11.206Z,19.13
2019-05-17T15:59:43.795Z,19.13
2019-05-17T16:02:16.333Z,19.11
2019-05-17T16:04:50.287Z,19.10
2019-05-17T16:07:23.151Z,19.11
2019-05-17T16:09:55.708Z,19.11
2019-05-17T16:12:28.327Z,19.14
2019-05-17T16:15:00.873Z,19.14
2019-05-17T16:17:33.711Z,19.17
2019-05-17T16:20:08.035Z,19.17
2019-05-17T16:22:40.755Z,19.14
2019-05-17T16:25:13.969Z,19.14
2019-05-17T16:27:46.714Z,19.11
2019-05-17T16:30:19.601Z,19.09
2019-05-17T16:32:52.112Z,19.10
2019-05-17T16:35:25.056Z,19.07
2019-05-17T16:37:57.895Z,19.09
2019-05-17T16:40:30.761Z,19.07
2019-05-17T16:43:17.092Z,19.07
2019-05-17T16:45:37.781Z,19.05
2019-05-17T16:48:10.845Z,19.03
2019-05-17T16:50:43.516Z,19.02
2019-05-17T16:53:16.730Z,18.98
2019-05-17T16:55:49.533Z,18.93
2019-05-17T16:58:22.478Z,18.89
2019-05-17T17:00:55.551Z,18.88
2019-05-17T17:03:43.269Z,18.81
2019-05-17T17:06:02.985Z,18.78
2019-05-17T17:08:36.772Z,18.72
2019-05-17T17:11:09.820Z,18.71
2019-05-17T17:13:42.735Z,18.68
2019-05-17T17:16:15.816Z,18.65
2019-05-17T17:18:48.510Z,18.60
2019-05-17T17:21:21.601Z,18.60
2019-05-17T17:23:54.693Z,18.52
2019-05-17T17:26:27.686Z,18.48
2019-05-17T17:29:00.480Z,18.43
2019-05-17T17:31:33.395Z,19.62
2019-05-17T17:34:06.222Z,21.46
2019-05-17T17:36:38.768Z,22.39
2019-05-17T17:39:11.611Z,22.66
2019-05-17T17:41:44.331Z,22.19
2019-05-17T17:44:17.001Z,21.84
2019-05-17T17:46:49.761Z,21.54
2019-05-17T17:49:22.626Z,21.22
2019-05-17T17:51:55.210Z,20.94
2019-05-17T17:54:27.976Z,20.67
2019-05-17T17:57:00.751Z,20.41
2019-05-17T17:59:33.531Z,20.16
2019-05-17T18:02:06.753Z,19.91
2019-05-17T18:04:39.736Z,19.69
2019-05-17T18:07:12.921Z,19.44
2019-05-17T18:09:45.876Z,19.26
2019-05-17T18:12:18.824Z,19.05
2019-05-17T18:14:51.370Z,18.79
2019-05-17T18:17:24.316Z,19.81
2019-05-17T18:19:57.366Z,21.47
2019-05-17T18:22:30.091Z,22.57
2019-05-17T18:25:03.211Z,22.70
2019-05-17T18:27:37.071Z,22.13
2019-05-17T18:30:10.277Z,21.64
2019-05-17T18:32:42.761Z,21.19
2019-05-17T18:35:15.977Z,20.78
2019-05-17T18:37:48.866Z,20.37
2019-05-17T18:40:21.672Z,19.98
2019-05-17T18:42:54.415Z,19.60
2019-05-17T18:45:27.402Z,19.26
2019-05-17T18:48:00.500Z,18.88
2019-05-17T18:50:33.866Z,19.66
2019-05-17T18:53:13.098Z,21.16
2019-05-17T18:55:41.081Z,22.35
2019-05-17T18:58:13.875Z,22.30
2019-05-17T19:00:47.303Z,21.63
2019-05-17T19:03:20.186Z,21.02
2019-05-17T19:05:53.315Z,20.51
2019-05-17T19:08:26.086Z,19.99
2019-05-17T19:10:59.531Z,19.53
2019-05-17T19:13:32.261Z,19.10
2019-05-17T19:16:05.013Z,18.64
2019-05-17T19:18:37.956Z,18.23
2019-05-17T19:21:10.866Z,17.86
2019-05-17T19:23:43.617Z,18.76
2019-05-17T19:26:16.216Z,20.37
2019-05-17T19:28:49.166Z,21.61
2019-05-17T19:31:21.976Z,21.60
2019-05-17T19:33:54.475Z,20.92
2019-05-17T19:36:27.761Z,20.34
2019-05-17T19:39:00.812Z,19.76
2019-05-17T19:41:35.466Z,19.30
2019-05-17T19:44:08.077Z,18.82
2019-05-17T19:46:40.767Z,18.37
2019-05-17T19:49:13.761Z,17.97
2019-05-17T19:51:46.791Z,18.79
2019-05-17T19:54:19.635Z,20.31
2019-05-17T19:56:52.367Z,21.49
2019-05-17T19:59:25.416Z,21.47
2019-05-17T20:01:58.601Z,20.71
2019-05-17T20:04:31.295Z,20.06
2019-05-17T20:07:04.195Z,19.50
2019-05-17T20:09:37.089Z,18.99
2019-05-17T20:12:09.771Z,18.44
2019-05-17T20:14:42.496Z,18.00
2019-05-17T20:17:15.831Z,17.55
2019-05-17T20:19:49.006Z,18.28
2019-05-17T20:22:21.787Z,19.82
2019-05-17T20:24:54.576Z,21.05
2019-05-17T20:27:27.241Z,20.99
2019-05-17T20:30:00.755Z,20.26
2019-05-17T20:32:33.431Z,19.62
2019-05-17T20:35:07.316Z,19.02
2019-05-17T20:37:40.107Z,18.44
2019-05-17T20:40:12.991Z,17.95
2019-05-17T20:42:45.637Z,17.48
2019-05-17T20:45:32.187Z,18.20
2019-05-17T20:47:53.516Z,19.79
2019-05-17T20:50:26.441Z,20.98
2019-05-17T20:52:59.236Z,20.85
2019-05-17T20:55:31.739Z,20.06
2019-05-17T20:58:04.571Z,19.36
2019-05-17T21:00:37.316Z,18.74
2019-05-17T21:03:13.739Z,18.17
2019-05-17T21:05:44.792Z,17.67
2019-05-17T21:08:17.590Z,17.19
2019-05-17T21:10:50.584Z,17.95
2019-05-17T21:13:23.456Z,19.53
2019-05-17T21:15:56.067Z,20.74
2019-05-17T21:18:29.026Z,20.65
2019-05-17T21:21:01.942Z,19.89
2019-05-17T21:23:34.935Z,19.20
2019-05-17T21:26:08.115Z,18.51
2019-05-17T21:28:40.825Z,17.97
2019-05-17T21:31:13.465Z,17.51
2019-05-17T21:33:46.221Z,17.05
2019-05-17T21:36:18.911Z,16.58
2019-05-17T21:38:51.873Z,17.47
2019-05-17T21:41:24.526Z,19.14
2019-05-17T21:43:58.500Z,20.40
2019-05-17T21:46:31.070Z,20.37
2019-05-17T21:49:03.826Z,19.62
2019-05-17T21:51:36.440Z,18.93
2019-05-17T21:54:09.266Z,18.33
2019-05-17T21:56:41.936Z,17.78
2019-05-17T21:59:14.831Z,17.29
2019-05-17T22:01:48.650Z,16.83
2019-05-17T22:04:21.327Z,17.62
2019-05-17T22:06:54.122Z,19.25
2019-05-17T22:09:27.066Z,19.41
2019-05-17T22:12:01.641Z,18.70
2019-05-17T22:14:34.206Z,18.02
2019-05-17T22:17:07.001Z,17.48
2019-05-17T22:19:39.689Z,16.99
2019-05-17T22:22:12.560Z,16.52
2019-05-17T22:24:45.106Z,17.34
2019-05-17T22:27:17.740Z,18.95
2019-05-17T22:29:50.511Z,20.19
2019-05-17T22:32:23.260Z,20.11
2019-05-17T22:34:55.856Z,19.33
2019-05-17T22:37:28.430Z,18.61
2019-05-17T22:40:01.102Z,17.97
2019-05-17T22:42:33.866Z,17.44
2019-05-17T22:45:09.900Z,16.92
2019-05-17T22:47:42.411Z,16.41
2019-05-17T22:50:15.470Z,15.96
2019-05-17T22:52:48.600Z,16.72
2019-05-17T22:55:22.415Z,18.28
2019-05-17T22:57:54.790Z,19.57
2019-05-17T23:00:27.592Z,19.50
2019-05-17T23:03:00.531Z,18.68
2019-05-17T23:05:33.111Z,17.96
2019-05-17T23:08:06.920Z,17.35
2019-05-17T23:10:39.455Z,16.82
2019-05-17T23:13:13.296Z,16.33
2019-05-17T23:16:02.191Z,15.80
2019-05-17T23:18:35.946Z,15.30
2019-05-17T23:21:08.830Z,16.03
2019-05-17T23:23:41.310Z,17.51
2019-05-17T23:26:13.853Z,18.75
2019-05-17T23:28:46.582Z,18.83
2019-05-17T23:31:19.475Z,18.09
2019-05-17T23:33:52.130Z,17.42
2019-05-17T23:36:24.825Z,16.83
2019-05-17T23:38:57.570Z,16.30
2019-05-17T23:41:30.136Z,15.83
2019-05-17T23:44:02.772Z,15.37
2019-05-17T23:46:37.160Z,16.13
2019-05-17T23:49:09.757Z,17.62
2019-05-17T23:51:42.411Z,18.92
2019-05-17T23:54:15.045Z,18.90
2019-05-17T23:56:47.835Z,18.14
2019-05-17T23:59:20.390Z,17.47
